sensor_id;sensor_type;location;lat;lon;timestamp;P1;durP1;ratioP1;P2;durP2;ratioP2
60292;SDS011;52402;52.670;6.750;2022-09-25T00:01:23;10.70;;;5.28;;
60292;SDS011;52402;52.670;6.750;2022-09-25T00:03:49;9.25;;;5.57;;
60292;SDS011;52402;52.670;6.750;2022-09-25T00:06:21;12.15;;;5.45;;
60292;SDS011;52402;52.670;6.750;2022-09-25T00:08:49;13.90;;;5.93;;
60292;SDS011;52402;52.670;6.750;2022-09-25T00:11:18;11.43;;;5.75;;
60292;SDS011;52402;52.670;6.750;2022-09-25T00:13:46;14.32;;;6.93;;
60292;SDS011;52402;52.670;6.750;2022-09-25T00:16:13;10.70;;;5.10;;
60292;SDS011;52402;52.670;6.750;2022-09-25T00:18:41;8.88;;;4.65;;
60292;SDS011;52402;52.670;6.750;2022-09-25T00:21:26;11.25;;;4.63;;
60292;SDS011;52402;52.670;6.750;2022-09-25T00:23:55;11.93;;;5.50;;
60292;SDS011;52402;52.670;6.750;2022-09-25T00:26:24;9.52;;;4.60;;
60292;SDS011;52402;52.670;6.750;2022-09-25T00:28:54;11.68;;;5.82;;
60292;SDS011;52402;52.670;6.750;2022-09-25T00:31:20;14.00;;;6.10;;
60292;SDS011;52402;52.670;6.750;2022-09-25T00:33:49;14.18;;;6.15;;
60292;SDS011;52402;52.670;6.750;2022-09-25T00:36:15;12.02;;;5.38;;
60292;SDS011;52402;52.670;6.750;2022-09-25T00:38:41;10.90;;;5.60;;
60292;SDS011;52402;52.670;6.750;2022-09-25T00:41:07;11.13;;;6.10;;
60292;SDS011;52402;52.670;6.750;2022-09-25T00:46:42;8.43;;;5.22;;
60292;SDS011;52402;52.670;6.750;2022-09-25T00:49:10;12.35;;;5.57;;
60292;SDS011;52402;52.670;6.750;2022-09-25T00:51:44;11.90;;;5.68;;
60292;SDS011;52402;52.670;6.750;2022-09-25T00:54:22;11.38;;;5.40;;
60292;SDS011;52402;52.670;6.750;2022-09-25T00:56:59;14.40;;;5.63;;
60292;SDS011;52402;52.670;6.750;2022-09-25T00:59:29;13.82;;;7.07;;
60292;SDS011;52402;52.670;6.750;2022-09-25T01:02:00;14.70;;;7.13;;
60292;SDS011;52402;52.670;6.750;2022-09-25T01:04:27;14.38;;;6.10;;
60292;SDS011;52402;52.670;6.750;2022-09-25T01:06:57;8.70;;;4.85;;
60292;SDS011;52402;52.670;6.750;2022-09-25T01:09:23;14.10;;;7.00;;
60292;SDS011;52402;52.670;6.750;2022-09-25T01:11:49;9.82;;;4.90;;
60292;SDS011;52402;52.670;6.750;2022-09-25T01:14:14;10.50;;;5.22;;
60292;SDS011;52402;52.670;6.750;2022-09-25T01:22:49;13.43;;;7.68;;
60292;SDS011;52402;52.670;6.750;2022-09-25T01:28:45;9.57;;;5.97;;
60292;SDS011;52402;52.670;6.750;2022-09-25T01:34:15;11.65;;;5.95;;
60292;SDS011;52402;52.670;6.750;2022-09-25T01:36:51;9.63;;;5.28;;
60292;SDS011;52402;52.670;6.750;2022-09-25T01:39:34;12.20;;;6.75;;
60292;SDS011;52402;52.670;6.750;2022-09-25T01:42:05;10.70;;;5.50;;
60292;SDS011;52402;52.670;6.750;2022-09-25T01:44:34;12.45;;;6.45;;
60292;SDS011;52402;52.670;6.750;2022-09-25T01:47:06;14.15;;;6.72;;
60292;SDS011;52402;52.670;6.750;2022-09-25T01:49:36;12.75;;;5.80;;
60292;SDS011;52402;52.670;6.750;2022-09-25T01:52:16;10.98;;;5.40;;
60292;SDS011;52402;52.670;6.750;2022-09-25T01:54:48;10.60;;;5.05;;
60292;SDS011;52402;52.670;6.750;2022-09-25T01:57:21;9.77;;;5.35;;
60292;SDS011;52402;52.670;6.750;2022-09-25T01:59:58;12.57;;;6.50;;
60292;SDS011;52402;52.670;6.750;2022-09-25T02:02:32;9.73;;;5.40;;
60292;SDS011;52402;52.670;6.750;2022-09-25T02:05:32;10.45;;;5.55;;
60292;SDS011;52402;52.670;6.750;2022-09-25T02:08:01;10.65;;;6.43;;
60292;SDS011;52402;52.670;6.750;2022-09-25T02:10:34;12.20;;;5.78;;
60292;SDS011;52402;52.670;6.750;2022-09-25T02:13:06;10.27;;;5.68;;
60292;SDS011;52402;52.670;6.750;2022-09-25T02:15:48;12.50;;;7.20;;
60292;SDS011;52402;52.670;6.750;2022-09-25T02:18:19;10.40;;;5.93;;
60292;SDS011;52402;52.670;6.750;2022-09-25T02:28:56;12.30;;;6.32;;
60292;SDS011;52402;52.670;6.750;2022-09-25T02:31:24;11.75;;;6.20;;
60292;SDS011;52402;52.670;6.750;2022-09-25T02:33:55;14.25;;;7.40;;
60292;SDS011;52402;52.670;6.750;2022-09-25T02:36:21;9.82;;;5.82;;
60292;SDS011;52402;52.670;6.750;2022-09-25T02:38:48;10.98;;;5.90;;
60292;SDS011;52402;52.670;6.750;2022-09-25T02:41:17;9.48;;;5.22;;
60292;SDS011;52402;52.670;6.750;2022-09-25T02:58:12;12.75;;;6.45;;
60292;SDS011;52402;52.670;6.750;2022-09-25T03:00:41;12.77;;;6.15;;
60292;SDS011;52402;52.670;6.750;2022-09-25T03:03:11;12.80;;;7.45;;
60292;SDS011;52402;52.670;6.750;2022-09-25T03:05:39;13.90;;;7.63;;
60292;SDS011;52402;52.670;6.750;2022-09-25T03:08:05;14.13;;;7.65;;
60292;SDS011;52402;52.670;6.750;2022-09-25T03:10:50;12.45;;;6.68;;
60292;SDS011;52402;52.670;6.750;2022-09-25T03:13:17;14.40;;;8.00;;
60292;SDS011;52402;52.670;6.750;2022-09-25T03:16:09;11.60;;;6.23;;
60292;SDS011;52402;52.670;6.750;2022-09-25T03:18:40;10.10;;;5.25;;
60292;SDS011;52402;52.670;6.750;2022-09-25T03:21:05;12.68;;;5.30;;
60292;SDS011;52402;52.670;6.750;2022-09-25T03:23:31;12.63;;;6.90;;
60292;SDS011;52402;52.670;6.750;2022-09-25T03:25:57;9.88;;;5.47;;
60292;SDS011;52402;52.670;6.750;2022-09-25T03:28:22;10.23;;;5.38;;
60292;SDS011;52402;52.670;6.750;2022-09-25T03:30:59;12.43;;;6.13;;
60292;SDS011;52402;52.670;6.750;2022-09-25T03:33:27;10.60;;;5.88;;
60292;SDS011;52402;52.670;6.750;2022-09-25T03:36:01;12.27;;;6.57;;
60292;SDS011;52402;52.670;6.750;2022-09-25T03:38:29;12.43;;;6.68;;
60292;SDS011;52402;52.670;6.750;2022-09-25T03:40:54;9.80;;;5.70;;
60292;SDS011;52402;52.670;6.750;2022-09-25T03:43:20;10.55;;;6.18;;
60292;SDS011;52402;52.670;6.750;2022-09-25T03:45:45;9.20;;;6.13;;
60292;SDS011;52402;52.670;6.750;2022-09-25T03:48:11;11.65;;;7.50;;
60292;SDS011;52402;52.670;6.750;2022-09-25T03:50:37;10.60;;;5.68;;
60292;SDS011;52402;52.670;6.750;2022-09-25T03:53:03;13.70;;;7.15;;
60292;SDS011;52402;52.670;6.750;2022-09-25T03:55:29;9.10;;;5.93;;
60292;SDS011;52402;52.670;6.750;2022-09-25T03:57:55;12.90;;;6.80;;
60292;SDS011;52402;52.670;6.750;2022-09-25T04:00:20;12.90;;;5.85;;
60292;SDS011;52402;52.670;6.750;2022-09-25T04:02:47;19.40;;;9.32;;
60292;SDS011;52402;52.670;6.750;2022-09-25T04:05:14;15.75;;;7.72;;
60292;SDS011;52402;52.670;6.750;2022-09-25T04:07:40;14.77;;;7.80;;
60292;SDS011;52402;52.670;6.750;2022-09-25T04:10:06;18.77;;;9.07;;
60292;SDS011;52402;52.670;6.750;2022-09-25T04:12:32;14.55;;;8.15;;
60292;SDS011;52402;52.670;6.750;2022-09-25T04:14:58;13.27;;;6.72;;
60292;SDS011;52402;52.670;6.750;2022-09-25T04:17:23;12.02;;;6.25;;
60292;SDS011;52402;52.670;6.750;2022-09-25T04:19:49;11.45;;;6.45;;
60292;SDS011;52402;52.670;6.750;2022-09-25T04:22:16;11.20;;;6.20;;
60292;SDS011;52402;52.670;6.750;2022-09-25T04:24:42;11.45;;;6.82;;
60292;SDS011;52402;52.670;6.750;2022-09-25T04:27:17;13.90;;;7.47;;
60292;SDS011;52402;52.670;6.750;2022-09-25T04:29:45;12.30;;;7.50;;
60292;SDS011;52402;52.670;6.750;2022-09-25T04:32:11;10.65;;;7.18;;
60292;SDS011;52402;52.670;6.750;2022-09-25T04:34:57;11.38;;;6.00;;
60292;SDS011;52402;52.670;6.750;2022-09-25T04:37:23;13.18;;;7.40;;
60292;SDS011;52402;52.670;6.750;2022-09-25T04:39:53;12.75;;;6.93;;
60292;SDS011;52402;52.670;6.750;2022-09-25T04:42:20;13.25;;;6.60;;
60292;SDS011;52402;52.670;6.750;2022-09-25T04:44:52;12.07;;;7.68;;
60292;SDS011;52402;52.670;6.750;2022-09-25T04:47:19;15.82;;;9.27;;
60292;SDS011;52402;52.670;6.750;2022-09-25T04:49:46;15.57;;;8.70;;
60292;SDS011;52402;52.670;6.750;2022-09-25T04:52:15;14.95;;;8.55;;
60292;SDS011;52402;52.670;6.750;2022-09-25T04:54:43;10.73;;;6.18;;
60292;SDS011;52402;52.670;6.750;2022-09-25T04:57:09;15.00;;;7.35;;
60292;SDS011;52402;52.670;6.750;2022-09-25T04:59:38;14.70;;;7.78;;
60292;SDS011;52402;52.670;6.750;2022-09-25T05:02:04;9.38;;;5.40;;
60292;SDS011;52402;52.670;6.750;2022-09-25T05:04:30;14.05;;;8.07;;
60292;SDS011;52402;52.670;6.750;2022-09-25T05:06:56;9.80;;;5.20;;
60292;SDS011;52402;52.670;6.750;2022-09-25T05:09:21;11.35;;;5.38;;
60292;SDS011;52402;52.670;6.750;2022-09-25T05:11:47;13.82;;;7.97;;
60292;SDS011;52402;52.670;6.750;2022-09-25T05:14:13;9.63;;;5.20;;
60292;SDS011;52402;52.670;6.750;2022-09-25T05:16:38;9.05;;;5.30;;
60292;SDS011;52402;52.670;6.750;2022-09-25T05:19:04;13.25;;;8.65;;
60292;SDS011;52402;52.670;6.750;2022-09-25T05:21:29;8.55;;;6.28;;
60292;SDS011;52402;52.670;6.750;2022-09-25T05:23:56;15.18;;;8.02;;
60292;SDS011;52402;52.670;6.750;2022-09-25T05:26:22;18.73;;;10.63;;
60292;SDS011;52402;52.670;6.750;2022-09-25T05:28:48;12.43;;;7.90;;
60292;SDS011;52402;52.670;6.750;2022-09-25T05:31:14;13.23;;;8.20;;
60292;SDS011;52402;52.670;6.750;2022-09-25T05:33:40;12.80;;;6.90;;
60292;SDS011;52402;52.670;6.750;2022-09-25T05:36:07;8.40;;;5.30;;
60292;SDS011;52402;52.670;6.750;2022-09-25T05:38:34;18.33;;;9.32;;
60292;SDS011;52402;52.670;6.750;2022-09-25T05:41:02;19.23;;;8.75;;
60292;SDS011;52402;52.670;6.750;2022-09-25T05:43:29;9.27;;;5.55;;
60292;SDS011;52402;52.670;6.750;2022-09-25T05:45:55;12.90;;;8.05;;
60292;SDS011;52402;52.670;6.750;2022-09-25T05:48:22;13.00;;;6.95;;
60292;SDS011;52402;52.670;6.750;2022-09-25T05:50:51;15.45;;;8.05;;
60292;SDS011;52402;52.670;6.750;2022-09-25T05:53:17;15.07;;;9.00;;
60292;SDS011;52402;52.670;6.750;2022-09-25T05:55:49;14.85;;;8.35;;
60292;SDS011;52402;52.670;6.750;2022-09-25T05:58:22;8.75;;;5.57;;
60292;SDS011;52402;52.670;6.750;2022-09-25T06:00:49;13.52;;;7.72;;
60292;SDS011;52402;52.670;6.750;2022-09-25T06:03:15;14.25;;;7.60;;
60292;SDS011;52402;52.670;6.750;2022-09-25T06:05:41;15.32;;;8.30;;
60292;SDS011;52402;52.670;6.750;2022-09-25T06:08:07;11.00;;;6.70;;
60292;SDS011;52402;52.670;6.750;2022-09-25T06:10:35;10.48;;;5.90;;
60292;SDS011;52402;52.670;6.750;2022-09-25T06:13:01;14.15;;;7.53;;
60292;SDS011;52402;52.670;6.750;2022-09-25T06:15:32;10.63;;;6.22;;
60292;SDS011;52402;52.670;6.750;2022-09-25T06:20:35;13.40;;;7.68;;
60292;SDS011;52402;52.670;6.750;2022-09-25T06:23:01;12.95;;;8.00;;
60292;SDS011;52402;52.670;6.750;2022-09-25T06:25:28;13.93;;;9.00;;
60292;SDS011;52402;52.670;6.750;2022-09-25T06:27:57;13.02;;;8.50;;
60292;SDS011;52402;52.670;6.750;2022-09-25T06:30:24;13.70;;;7.95;;
60292;SDS011;52402;52.670;6.750;2022-09-25T06:32:58;12.13;;;7.43;;
60292;SDS011;52402;52.670;6.750;2022-09-25T06:35:25;15.57;;;8.48;;
60292;SDS011;52402;52.670;6.750;2022-09-25T06:37:57;13.75;;;8.57;;
60292;SDS011;52402;52.670;6.750;2022-09-25T06:40:27;14.23;;;8.70;;
60292;SDS011;52402;52.670;6.750;2022-09-25T06:43:01;12.40;;;7.95;;
60292;SDS011;52402;52.670;6.750;2022-09-25T06:45:29;15.95;;;8.30;;
60292;SDS011;52402;52.670;6.750;2022-09-25T06:48:02;13.15;;;7.10;;
60292;SDS011;52402;52.670;6.750;2022-09-25T06:50:40;18.17;;;8.20;;
60292;SDS011;52402;52.670;6.750;2022-09-25T06:53:14;13.82;;;8.10;;
60292;SDS011;52402;52.670;6.750;2022-09-25T06:55:41;12.27;;;7.72;;
60292;SDS011;52402;52.670;6.750;2022-09-25T06:58:13;12.63;;;6.68;;
60292;SDS011;52402;52.670;6.750;2022-09-25T07:00:44;13.40;;;7.10;;
60292;SDS011;52402;52.670;6.750;2022-09-25T07:03:14;9.95;;;6.60;;
60292;SDS011;52402;52.670;6.750;2022-09-25T07:06:01;12.82;;;7.35;;
60292;SDS011;52402;52.670;6.750;2022-09-25T07:08:28;14.23;;;7.03;;
60292;SDS011;52402;52.670;6.750;2022-09-25T07:10:55;14.38;;;7.30;;
60292;SDS011;52402;52.670;6.750;2022-09-25T07:13:23;13.18;;;7.70;;
60292;SDS011;52402;52.670;6.750;2022-09-25T07:15:58;11.50;;;6.10;;
60292;SDS011;52402;52.670;6.750;2022-09-25T07:18:28;9.60;;;6.35;;
60292;SDS011;52402;52.670;6.750;2022-09-25T07:21:05;12.10;;;5.68;;
60292;SDS011;52402;52.670;6.750;2022-09-25T07:23:32;11.25;;;6.20;;
60292;SDS011;52402;52.670;6.750;2022-09-25T07:26:09;10.63;;;6.30;;
60292;SDS011;52402;52.670;6.750;2022-09-25T07:28:37;13.07;;;5.45;;
60292;SDS011;52402;52.670;6.750;2022-09-25T07:31:20;11.73;;;5.20;;
60292;SDS011;52402;52.670;6.750;2022-09-25T07:33:47;11.98;;;6.28;;
60292;SDS011;52402;52.670;6.750;2022-09-25T07:36:13;9.57;;;5.00;;
60292;SDS011;52402;52.670;6.750;2022-09-25T07:38:40;10.52;;;4.80;;
60292;SDS011;52402;52.670;6.750;2022-09-25T07:41:06;10.48;;;5.40;;
60292;SDS011;52402;52.670;6.750;2022-09-25T07:43:35;11.68;;;5.70;;
60292;SDS011;52402;52.670;6.750;2022-09-25T07:46:04;13.02;;;4.95;;
60292;SDS011;52402;52.670;6.750;2022-09-25T07:48:30;11.88;;;4.70;;
60292;SDS011;52402;52.670;6.750;2022-09-25T07:51:00;11.27;;;5.15;;
60292;SDS011;52402;52.670;6.750;2022-09-25T07:53:26;10.82;;;4.53;;
60292;SDS011;52402;52.670;6.750;2022-09-25T07:55:54;10.32;;;4.60;;
60292;SDS011;52402;52.670;6.750;2022-09-25T07:58:22;10.18;;;4.47;;
60292;SDS011;52402;52.670;6.750;2022-09-25T08:00:48;9.02;;;3.83;;
60292;SDS011;52402;52.670;6.750;2022-09-25T08:03:13;12.07;;;4.32;;
60292;SDS011;52402;52.670;6.750;2022-09-25T08:05:39;9.30;;;4.50;;
60292;SDS011;52402;52.670;6.750;2022-09-25T08:08:04;10.63;;;3.78;;
60292;SDS011;52402;52.670;6.750;2022-09-25T08:10:30;8.00;;;3.72;;
60292;SDS011;52402;52.670;6.750;2022-09-25T08:12:56;11.30;;;3.95;;
60292;SDS011;52402;52.670;6.750;2022-09-25T08:15:22;11.52;;;3.90;;
60292;SDS011;52402;52.670;6.750;2022-09-25T08:17:47;9.10;;;3.67;;
60292;SDS011;52402;52.670;6.750;2022-09-25T08:20:13;10.07;;;3.20;;
60292;SDS011;52402;52.670;6.750;2022-09-25T08:22:38;7.38;;;3.80;;
60292;SDS011;52402;52.670;6.750;2022-09-25T08:25:04;11.95;;;3.33;;
60292;SDS011;52402;52.670;6.750;2022-09-25T08:27:30;8.45;;;3.30;;
60292;SDS011;52402;52.670;6.750;2022-09-25T08:29:56;8.77;;;3.13;;
60292;SDS011;52402;52.670;6.750;2022-09-25T08:32:22;8.57;;;2.97;;
60292;SDS011;52402;52.670;6.750;2022-09-25T08:34:48;8.93;;;2.60;;
60292;SDS011;52402;52.670;6.750;2022-09-25T08:37:14;12.35;;;3.08;;
60292;SDS011;52402;52.670;6.750;2022-09-25T08:39:40;10.77;;;3.08;;
60292;SDS011;52402;52.670;6.750;2022-09-25T08:42:08;5.97;;;2.40;;
60292;SDS011;52402;52.670;6.750;2022-09-25T08:44:50;7.13;;;2.45;;
60292;SDS011;52402;52.670;6.750;2022-09-25T08:47:38;9.40;;;2.60;;
60292;SDS011;52402;52.670;6.750;2022-09-25T08:50:23;7.53;;;1.77;;
60292;SDS011;52402;52.670;6.750;2022-09-25T08:52:51;8.60;;;2.22;;
60292;SDS011;52402;52.670;6.750;2022-09-25T08:55:30;8.05;;;3.65;;
60292;SDS011;52402;52.670;6.750;2022-09-25T08:58:37;9.13;;;2.47;;
60292;SDS011;52402;52.670;6.750;2022-09-25T09:01:09;8.98;;;1.95;;
60292;SDS011;52402;52.670;6.750;2022-09-25T09:03:45;7.53;;;1.70;;
60292;SDS011;52402;52.670;6.750;2022-09-25T09:06:14;8.43;;;1.60;;
60292;SDS011;52402;52.670;6.750;2022-09-25T09:08:41;7.47;;;1.63;;
60292;SDS011;52402;52.670;6.750;2022-09-25T09:11:20;8.70;;;1.50;;
60292;SDS011;52402;52.670;6.750;2022-09-25T09:19:23;11.85;;;1.60;;
60292;SDS011;52402;52.670;6.750;2022-09-25T09:22:02;6.10;;;1.52;;
60292;SDS011;52402;52.670;6.750;2022-09-25T09:32:35;8.82;;;2.22;;
60292;SDS011;52402;52.670;6.750;2022-09-25T09:43:14;6.57;;;1.90;;
60292;SDS011;52402;52.670;6.750;2022-09-25T09:46:27;5.70;;;1.20;;
60292;SDS011;52402;52.670;6.750;2022-09-25T09:48:59;7.75;;;1.52;;
60292;SDS011;52402;52.670;6.750;2022-09-25T09:54:16;7.82;;;1.30;;
60292;SDS011;52402;52.670;6.750;2022-09-25T09:56:51;7.50;;;1.40;;
60292;SDS011;52402;52.670;6.750;2022-09-25T09:59:22;6.13;;;1.33;;
60292;SDS011;52402;52.670;6.750;2022-09-25T10:02:04;7.63;;;1.50;;
60292;SDS011;52402;52.670;6.750;2022-09-25T10:04:39;5.85;;;1.58;;
60292;SDS011;52402;52.670;6.750;2022-09-25T10:07:09;7.75;;;1.38;;
60292;SDS011;52402;52.670;6.750;2022-09-25T10:09:40;8.20;;;1.38;;
60292;SDS011;52402;52.670;6.750;2022-09-25T10:12:21;7.10;;;1.20;;
60292;SDS011;52402;52.670;6.750;2022-09-25T10:14:49;7.93;;;1.50;;
60292;SDS011;52402;52.670;6.750;2022-09-25T10:17:16;10.57;;;1.80;;
60292;SDS011;52402;52.670;6.750;2022-09-25T10:19:47;7.07;;;1.40;;
60292;SDS011;52402;52.670;6.750;2022-09-25T10:22:31;9.88;;;1.90;;
60292;SDS011;52402;52.670;6.750;2022-09-25T10:25:01;6.15;;;1.38;;
60292;SDS011;52402;52.670;6.750;2022-09-25T10:27:39;4.93;;;1.08;;
60292;SDS011;52402;52.670;6.750;2022-09-25T10:33:10;5.32;;;1.50;;
60292;SDS011;52402;52.670;6.750;2022-09-25T10:41:10;4.75;;;1.30;;
60292;SDS011;52402;52.670;6.750;2022-09-25T10:43:56;5.72;;;1.40;;
60292;SDS011;52402;52.670;6.750;2022-09-25T10:46:33;3.75;;;1.30;;
60292;SDS011;52402;52.670;6.750;2022-09-25T10:49:19;3.97;;;1.10;;
60292;SDS011;52402;52.670;6.750;2022-09-25T10:52:13;3.90;;;1.17;;
60292;SDS011;52402;52.670;6.750;2022-09-25T10:54:42;3.85;;;1.15;;
60292;SDS011;52402;52.670;6.750;2022-09-25T10:57:14;3.03;;;0.98;;
60292;SDS011;52402;52.670;6.750;2022-09-25T10:59:46;3.42;;;0.90;;
60292;SDS011;52402;52.670;6.750;2022-09-25T11:02:24;3.97;;;1.00;;
60292;SDS011;52402;52.670;6.750;2022-09-25T11:05:03;3.63;;;1.27;;
60292;SDS011;52402;52.670;6.750;2022-09-25T11:07:30;3.80;;;1.10;;
60292;SDS011;52402;52.670;6.750;2022-09-25T11:09:57;3.38;;;1.20;;
60292;SDS011;52402;52.670;6.750;2022-09-25T11:12:25;4.03;;;1.30;;
60292;SDS011;52402;52.670;6.750;2022-09-25T11:14:58;3.72;;;1.10;;
60292;SDS011;52402;52.670;6.750;2022-09-25T11:17:30;3.67;;;1.10;;
60292;SDS011;52402;52.670;6.750;2022-09-25T11:22:46;4.13;;;1.35;;
60292;SDS011;52402;52.670;6.750;2022-09-25T11:28:21;4.90;;;1.30;;
60292;SDS011;52402;52.670;6.750;2022-09-25T11:31:04;3.88;;;1.17;;
60292;SDS011;52402;52.670;6.750;2022-09-25T11:47:56;4.80;;;1.30;;
60292;SDS011;52402;52.670;6.750;2022-09-25T11:53:36;4.07;;;1.10;;
60292;SDS011;52402;52.670;6.750;2022-09-25T11:56:24;4.50;;;1.20;;
60292;SDS011;52402;52.670;6.750;2022-09-25T11:59:28;6.20;;;1.20;;
60292;SDS011;52402;52.670;6.750;2022-09-25T12:07:32;3.70;;;1.10;;
60292;SDS011;52402;52.670;6.750;2022-09-25T12:13:08;3.80;;;1.05;;
60292;SDS011;52402;52.670;6.750;2022-09-25T12:18:57;5.18;;;1.33;;
60292;SDS011;52402;52.670;6.750;2022-09-25T12:21:43;5.50;;;1.23;;
60292;SDS011;52402;52.670;6.750;2022-09-25T12:37:50;6.80;;;1.80;;
60292;SDS011;52402;52.670;6.750;2022-09-25T12:43:08;4.70;;;1.50;;
60292;SDS011;52402;52.670;6.750;2022-09-25T12:45:59;4.40;;;1.52;;
60292;SDS011;52402;52.670;6.750;2022-09-25T12:48:34;6.18;;;1.30;;
60292;SDS011;52402;52.670;6.750;2022-09-25T12:51:17;3.72;;;1.20;;
60292;SDS011;52402;52.670;6.750;2022-09-25T12:54:00;3.08;;;1.00;;
60292;SDS011;52402;52.670;6.750;2022-09-25T12:56:45;3.72;;;1.00;;
60292;SDS011;52402;52.670;6.750;2022-09-25T12:59:28;2.42;;;1.10;;
60292;SDS011;52402;52.670;6.750;2022-09-25T13:02:24;2.85;;;1.48;;
60292;SDS011;52402;52.670;6.750;2022-09-25T13:07:56;4.28;;;1.17;;
60292;SDS011;52402;52.670;6.750;2022-09-25T13:10:30;1.85;;;0.90;;
60292;SDS011;52402;52.670;6.750;2022-09-25T13:13:04;3.05;;;1.00;;
60292;SDS011;52402;52.670;6.750;2022-09-25T13:15:35;3.85;;;1.08;;
60292;SDS011;52402;52.670;6.750;2022-09-25T13:18:03;4.18;;;1.10;;
60292;SDS011;52402;52.670;6.750;2022-09-25T13:23:05;3.25;;;1.00;;
60292;SDS011;52402;52.670;6.750;2022-09-25T13:25:43;3.10;;;1.00;;
60292;SDS011;52402;52.670;6.750;2022-09-25T13:28:30;2.53;;;0.90;;
60292;SDS011;52402;52.670;6.750;2022-09-25T13:31:23;2.72;;;1.00;;
60292;SDS011;52402;52.670;6.750;2022-09-25T13:34:10;1.83;;;0.80;;
60292;SDS011;52402;52.670;6.750;2022-09-25T13:39:15;4.43;;;0.90;;
60292;SDS011;52402;52.670;6.750;2022-09-25T13:42:04;3.25;;;0.80;;
60292;SDS011;52402;52.670;6.750;2022-09-25T13:44:49;2.72;;;0.90;;
60292;SDS011;52402;52.670;6.750;2022-09-25T13:49:54;3.00;;;0.90;;
60292;SDS011;52402;52.670;6.750;2022-09-25T14:03:00;3.35;;;0.98;;
60292;SDS011;52402;52.670;6.750;2022-09-25T14:05:30;3.22;;;1.13;;
60292;SDS011;52402;52.670;6.750;2022-09-25T14:08:12;4.22;;;1.30;;
60292;SDS011;52402;52.670;6.750;2022-09-25T14:10:43;3.80;;;1.35;;
60292;SDS011;52402;52.670;6.750;2022-09-25T14:13:12;4.30;;;0.95;;
60292;SDS011;52402;52.670;6.750;2022-09-25T14:15:39;2.80;;;1.00;;
60292;SDS011;52402;52.670;6.750;2022-09-25T14:18:11;3.10;;;0.90;;
60292;SDS011;52402;52.670;6.750;2022-09-25T14:20:46;2.65;;;1.08;;
60292;SDS011;52402;52.670;6.750;2022-09-25T14:23:17;2.53;;;0.82;;
60292;SDS011;52402;52.670;6.750;2022-09-25T14:28:25;2.80;;;1.03;;
60292;SDS011;52402;52.670;6.750;2022-09-25T14:33:43;4.22;;;1.60;;
60292;SDS011;52402;52.670;6.750;2022-09-25T14:36:53;4.40;;;1.30;;
60292;SDS011;52402;52.670;6.750;2022-09-25T14:42:48;2.38;;;1.10;;
60292;SDS011;52402;52.670;6.750;2022-09-25T14:48:13;3.65;;;1.27;;
60292;SDS011;52402;52.670;6.750;2022-09-25T14:50:44;3.55;;;1.10;;
60292;SDS011;52402;52.670;6.750;2022-09-25T14:53:16;4.97;;;1.50;;
60292;SDS011;52402;52.670;6.750;2022-09-25T14:55:52;5.32;;;1.20;;
60292;SDS011;52402;52.670;6.750;2022-09-25T14:58:19;5.20;;;1.23;;
60292;SDS011;52402;52.670;6.750;2022-09-25T15:03:18;4.65;;;1.20;;
60292;SDS011;52402;52.670;6.750;2022-09-25T15:05:49;2.83;;;1.10;;
60292;SDS011;52402;52.670;6.750;2022-09-25T15:08:19;4.15;;;1.20;;
60292;SDS011;52402;52.670;6.750;2022-09-25T15:10:47;4.00;;;1.10;;
60292;SDS011;52402;52.670;6.750;2022-09-25T15:13:24;3.30;;;1.02;;
60292;SDS011;52402;52.670;6.750;2022-09-25T15:15:51;3.13;;;1.20;;
60292;SDS011;52402;52.670;6.750;2022-09-25T15:18:46;3.65;;;1.40;;
60292;SDS011;52402;52.670;6.750;2022-09-25T15:21:25;4.43;;;1.20;;
60292;SDS011;52402;52.670;6.750;2022-09-25T15:23:56;2.85;;;1.13;;
60292;SDS011;52402;52.670;6.750;2022-09-25T15:26:26;4.28;;;1.50;;
60292;SDS011;52402;52.670;6.750;2022-09-25T15:28:53;5.03;;;1.40;;
60292;SDS011;52402;52.670;6.750;2022-09-25T15:31:18;6.57;;;1.80;;
60292;SDS011;52402;52.670;6.750;2022-09-25T15:33:46;6.38;;;2.00;;
60292;SDS011;52402;52.670;6.750;2022-09-25T15:36:26;5.43;;;2.20;;
60292;SDS011;52402;52.670;6.750;2022-09-25T15:38:52;5.10;;;1.67;;
60292;SDS011;52402;52.670;6.750;2022-09-25T15:41:20;4.47;;;1.50;;
60292;SDS011;52402;52.670;6.750;2022-09-25T15:43:48;3.35;;;1.30;;
60292;SDS011;52402;52.670;6.750;2022-09-25T15:48:52;4.43;;;1.38;;
60292;SDS011;52402;52.670;6.750;2022-09-25T15:51:24;4.50;;;1.70;;
60292;SDS011;52402;52.670;6.750;2022-09-25T15:57:02;3.35;;;1.60;;
60292;SDS011;52402;52.670;6.750;2022-09-25T15:59:35;4.53;;;1.92;;
60292;SDS011;52402;52.670;6.750;2022-09-25T16:02:26;5.40;;;2.10;;
60292;SDS011;52402;52.670;6.750;2022-09-25T16:05:12;4.70;;;2.35;;
60292;SDS011;52402;52.670;6.750;2022-09-25T16:07:40;7.20;;;2.30;;
60292;SDS011;52402;52.670;6.750;2022-09-25T16:17:54;5.13;;;2.17;;
60292;SDS011;52402;52.670;6.750;2022-09-25T16:20:28;5.28;;;2.00;;
60292;SDS011;52402;52.670;6.750;2022-09-25T16:22:57;5.40;;;2.10;;
60292;SDS011;52402;52.670;6.750;2022-09-25T16:25:29;4.70;;;1.67;;
60292;SDS011;52402;52.670;6.750;2022-09-25T16:30:34;4.45;;;1.90;;
60292;SDS011;52402;52.670;6.750;2022-09-25T16:33:03;5.32;;;1.73;;
60292;SDS011;52402;52.670;6.750;2022-09-25T16:35:36;5.03;;;1.80;;
60292;SDS011;52402;52.670;6.750;2022-09-25T16:38:05;3.90;;;1.55;;
60292;SDS011;52402;52.670;6.750;2022-09-25T16:40:31;4.35;;;1.70;;
60292;SDS011;52402;52.670;6.750;2022-09-25T16:43:02;5.88;;;1.75;;
60292;SDS011;52402;52.670;6.750;2022-09-25T16:46:00;5.57;;;2.08;;
60292;SDS011;52402;52.670;6.750;2022-09-25T16:48:37;5.38;;;1.70;;
60292;SDS011;52402;52.670;6.750;2022-09-25T16:51:04;6.82;;;1.92;;
60292;SDS011;52402;52.670;6.750;2022-09-25T16:53:35;6.40;;;2.08;;
60292;SDS011;52402;52.670;6.750;2022-09-25T16:56:02;5.38;;;1.52;;
60292;SDS011;52402;52.670;6.750;2022-09-25T16:58:28;5.30;;;1.60;;
60292;SDS011;52402;52.670;6.750;2022-09-25T17:00:54;7.45;;;1.88;;
60292;SDS011;52402;52.670;6.750;2022-09-25T17:03:19;6.63;;;2.60;;
60292;SDS011;52402;52.670;6.750;2022-09-25T17:05:45;5.38;;;2.45;;
60292;SDS011;52402;52.670;6.750;2022-09-25T17:08:18;6.32;;;2.00;;
60292;SDS011;52402;52.670;6.750;2022-09-25T17:10:46;6.55;;;2.20;;
60292;SDS011;52402;52.670;6.750;2022-09-25T17:13:14;6.18;;;2.30;;
60292;SDS011;52402;52.670;6.750;2022-09-25T17:15:42;6.25;;;2.00;;
60292;SDS011;52402;52.670;6.750;2022-09-25T17:18:18;4.70;;;1.90;;
60292;SDS011;52402;52.670;6.750;2022-09-25T17:20:45;5.43;;;1.75;;
60292;SDS011;52402;52.670;6.750;2022-09-25T17:23:13;5.07;;;1.90;;
60292;SDS011;52402;52.670;6.750;2022-09-25T17:25:46;5.82;;;1.70;;
60292;SDS011;52402;52.670;6.750;2022-09-25T17:28:14;4.63;;;1.80;;
60292;SDS011;52402;52.670;6.750;2022-09-25T17:30:41;5.15;;;1.95;;
60292;SDS011;52402;52.670;6.750;2022-09-25T17:33:11;4.93;;;1.75;;
60292;SDS011;52402;52.670;6.750;2022-09-25T17:35:45;4.38;;;1.75;;
60292;SDS011;52402;52.670;6.750;2022-09-25T17:38:16;5.72;;;2.10;;
60292;SDS011;52402;52.670;6.750;2022-09-25T17:40:43;6.57;;;2.08;;
60292;SDS011;52402;52.670;6.750;2022-09-25T17:43:11;5.93;;;2.00;;
60292;SDS011;52402;52.670;6.750;2022-09-25T17:45:42;4.93;;;1.83;;
60292;SDS011;52402;52.670;6.750;2022-09-25T17:48:20;4.82;;;1.83;;
60292;SDS011;52402;52.670;6.750;2022-09-25T17:50:55;5.80;;;1.83;;
60292;SDS011;52402;52.670;6.750;2022-09-25T17:53:24;6.82;;;2.40;;
60292;SDS011;52402;52.670;6.750;2022-09-25T17:55:52;5.82;;;2.75;;
60292;SDS011;52402;52.670;6.750;2022-09-25T17:58:19;6.95;;;2.50;;
60292;SDS011;52402;52.670;6.750;2022-09-25T18:00:46;6.68;;;2.33;;
60292;SDS011;52402;52.670;6.750;2022-09-25T18:03:13;6.20;;;2.38;;